Aérodrome :
LOGIN :

S'inscrire | Disclaimer

   EN    FR    IT 

 










Légende :    VFR   VFR Marginal   IFR   IFR Intensif   IFR Très Intensif
Visi : 
Plafond : 
>= 8 km
>= 3000ft
5 à 8 km
1000 à 3000 ft
1500m à 5 km
500 à 1000 ft
800 à 1500m
200 à 500 ft
< 800m
< 200 ft
Symboles :   Orages  Brouillard  Fortes neiges  Fortes précipitations  Vent > 20 kt
SIGMETs :   Divers  Orages  Givrage  Turbulence  Onde Orograph.  Cendres Volcan.







- Altitude de l'aérodrome : 80 ft
- Code IATA : LPL
- Voir les cartes d'approche


EGGP - Liverpool John Lennon

DERNIER METAR :
  • 221250Z 22013KT 9999 SCT021 BKN028 21/17 Q1020

METARs EXPIRÉS :
  • 221220Z 22015KT 9999 SCT021 BKN026 20/16 Q1020
  • 221150Z 22013KT 9999 SCT018 BKN028 20/17 Q1020
  • 221120Z 22014KT 9999 SCT015 BKN019 BKN039 20/17 Q1020
  • 221050Z 24013KT 9999 VCSH SCT016 BKN034 19/17 Q1020
  • 221020Z 24013KT 9999 VCSH BKN017 BKN048 19/16 Q1020

TAF TAF EGGP
Valide du 22 à 12h jusqu'au 23 à 12h UTC


221105Z 2212/2312 20013KT 9999 SCT025
PROB30
TEMPO 2212/2215 9000 -RA BKN012
PROB30
TEMPO 2212/2219 21016G26KT
PROB30
TEMPO 2221/2306 BKN010
BECMG 2300/2303 VRB04KT
ATIS : +44 151 907 2000 (option 5 or ext 5150)
Météo : +44 871 750 5150
Pas de NOTAMs connus pour ce terrain.



MET'MAP, la Météo Aéronautique d'un coup d'oeil ! - Copyright ORBIFLY Décembre 2007 - Disclaimer

ORBIFLY MET'MAP TEAM :

Programmation & Développement : Alexandra Zaïnal
Conception & Développement : Baudouin d'Aumeries
Co-Programmation & Développement : Marc-Olivier Méhu
Soutien technique & logistique : Manuel Goepfert

Contact : metmap@orbifly.com




SOURCES & CREDITS :

   NOAA